Tuesday, October 17, 2017, 2:46 PM EDT
Back to Local

KJST, Johnstown-cambria Co Airport

Location: Johnstown, PA, United States Lat: 40.317
Local Time: 2:46 PM EDT (18:46 GMT) Lon: -78.833
Time Zone: US/Eastern Elev: 2283 ft

Show me the last for .
Show Decoded

2017-10-17 13:54 METAR KJST 171754Z AUTO 23008KT 10SM CLR 12/01 A3029 RMK AO2 SLP266 T01220011
                 10122 20017 58015 =
2017-10-17 12:54 METAR KJST 171654Z AUTO 28007KT 10SM CLR 11/02 A3032 RMK AO2 SLP278 T01110017 =
2017-10-17 11:54 METAR KJST 171554Z AUTO VRB06KT 10SM CLR 10/01 A3034 RMK AO2 SLP286 T01000006 =
2017-10-17 10:54 METAR KJST 171454Z AUTO 22004KT 10SM CLR 08/00 A3034 RMK AO2 SLP285 T00830000
                 50006 =
2017-10-17 09:54 METAR KJST 171354Z AUTO 23005KT 10SM CLR 06/02 A3034 RMK AO2 SLP289 T00610017 =
2017-10-17 08:54 METAR KJST 171254Z AUTO 21004KT 10SM CLR 04/01 A3034 RMK AO2 SLP288 T00440011 =
2017-10-17 07:54 METAR KJST 171154Z AUTO 22004KT 10SM CLR 02/M01 A3032 RMK AO2 SLP283 T00171006
                 10039 20006 51010 =
2017-10-17 06:54 METAR KJST 171054Z AUTO 25005KT 10SM CLR 01/M01 A3031 RMK AO2 SLP280 T00111011 =
2017-10-17 05:54 METAR KJST 170954Z AUTO 24004KT 10SM CLR 01/M01 A3030 RMK AO2 SLP274 T00111011 =
2017-10-17 04:54 METAR KJST 170854Z AUTO 26005KT 10SM CLR 03/M01 A3029 RMK AO2 SLP268 T00281011
                 53009 =
2017-10-17 03:54 METAR KJST 170754Z AUTO 24003KT 10SM CLR 03/M01 A3027 RMK AO2 SLP263 T00281006 =
2017-10-17 02:54 METAR KJST 170654Z AUTO 23004KT 10SM CLR 02/M02 A3027 RMK AO2 SLP261 T00221017 =
2017-10-17 01:54 METAR KJST 170554Z AUTO 31004KT 10SM CLR 04/M01 A3026 RMK AO2 SLP257 T00391011
                 10067 20033 55003 =
2017-10-17 00:54 METAR KJST 170454Z AUTO 33006KT 10SM CLR 04/M01 A3025 RMK AO2 SLP255 T00441006
                 401220039 =
2017-10-16 23:54 METAR KJST 170354Z AUTO 35004KT 10SM CLR 04/M01 A3026 RMK AO2 SLP258 T00441006 =
2017-10-16 22:54 METAR KJST 170254Z AUTO 01004KT 10SM CLR 05/M01 A3027 RMK AO2 SLP260 T00501006
                 51015 =
2017-10-16 21:54 METAR KJST 170154Z AUTO 34006KT 10SM CLR 06/00 A3026 RMK AO2 SLP259 T00560000 =
2017-10-16 20:54 METAR KJST 170054Z AUTO 32005KT 10SM CLR 06/01 A3024 RMK AO2 SLP251 T00560006 =
2017-10-16 19:54 METAR KJST 162354Z AUTO 33007KT 10SM CLR 07/01 A3022 RMK AO2 SLP245 60000
                 T00670006 10122 20067 53014 =
2017-10-16 18:54 METAR KJST 162254Z AUTO 33010KT 10SM FEW042 SCT065 08/01 A3020 RMK AO2 SLP239
                 T00780011 =
2017-10-16 17:54 METAR KJST 162154Z AUTO 33010KT 10SM FEW060 09/02 A3019 RMK AO2 SLP231 T00890017
                 =
2017-10-16 16:54 METAR KJST 162054Z AUTO 32011KT 10SM FEW036 SCT049 10/02 A3018 RMK AO2
                 RAB1957E09 SLP225 P0000 60000 T01000022 53004 =
2017-10-16 15:54 METAR KJST 161954Z AUTO 31016KT 10SM FEW041 SCT060 10/01 A3017 RMK AO2 SLP222
                 T01000011 =
2017-10-16 14:54 METAR KJST 161854Z AUTO 30011KT 10SM FEW040 SCT055 11/01 A3016 RMK AO2 SLP216
                 T01060006 =

Support USWX by starting your Amazon purchase here.